Mayer, Minnesota
Current Conditions -  °F | °C
As of 8:54 AM on Saturday 20 Dec 2014 (Local Time) from KGYL Reporting Station
Overcast Overcast  
Wind Chill: 25°   Ceiling: 1300
Heat Index: 32°   Visibility: 10mi
Dew Point: 31°   Wind: 7mph
Humidity: 97%   Direction: 170°S
Pressure: 30.11"   Gusts: NA
Location:  44.88°N, 93.89°W
Report Text: KGYL 201454Z AUTO 17006KT 10SM SCT009 OVC013 00/00 A3011 RMK AO2 T10011005
Loading
Personal Weather Stations






























Interactive Weather Map New forecast layout! Learn more

10-Day Weather Forecast

Advertisements
Track Severe Weather on mobile